sensor_id;sensor_type;location;lat;lon;timestamp;P1;durP1;ratioP1;P2;durP2;ratioP2
42260;SDS011;27926;48.062;7.474;2022-12-07T00:01:07;32.10;;;18.15;;
42260;SDS011;27926;48.062;7.474;2022-12-07T00:03:37;32.70;;;18.00;;
42260;SDS011;27926;48.062;7.474;2022-12-07T00:08:28;32.03;;;15.93;;
42260;SDS011;27926;48.062;7.474;2022-12-07T00:10:54;34.60;;;17.80;;
42260;SDS011;27926;48.062;7.474;2022-12-07T00:13:19;29.77;;;16.17;;
42260;SDS011;27926;48.062;7.474;2022-12-07T00:15:44;27.98;;;15.20;;
42260;SDS011;27926;48.062;7.474;2022-12-07T00:18:08;31.37;;;16.23;;
42260;SDS011;27926;48.062;7.474;2022-12-07T00:20:33;31.02;;;16.23;;
42260;SDS011;27926;48.062;7.474;2022-12-07T00:22:58;31.25;;;15.95;;
42260;SDS011;27926;48.062;7.474;2022-12-07T00:25:24;26.97;;;15.80;;
42260;SDS011;27926;48.062;7.474;2022-12-07T00:27:49;30.45;;;15.77;;
42260;SDS011;27926;48.062;7.474;2022-12-07T00:30:14;30.38;;;15.77;;
42260;SDS011;27926;48.062;7.474;2022-12-07T00:32:39;30.75;;;16.67;;
42260;SDS011;27926;48.062;7.474;2022-12-07T00:35:03;30.42;;;15.80;;
42260;SDS011;27926;48.062;7.474;2022-12-07T00:37:28;32.40;;;16.07;;
42260;SDS011;27926;48.062;7.474;2022-12-07T00:39:53;38.55;;;14.75;;
42260;SDS011;27926;48.062;7.474;2022-12-07T00:42:17;41.65;;;21.20;;
42260;SDS011;27926;48.062;7.474;2022-12-07T00:44:42;60.10;;;27.73;;
42260;SDS011;27926;48.062;7.474;2022-12-07T00:47:07;73.53;;;28.90;;
42260;SDS011;27926;48.062;7.474;2022-12-07T00:49:31;66.97;;;27.15;;
42260;SDS011;27926;48.062;7.474;2022-12-07T00:51:56;52.57;;;24.33;;
42260;SDS011;27926;48.062;7.474;2022-12-07T00:54:20;83.90;;;34.63;;
42260;SDS011;27926;48.062;7.474;2022-12-07T00:56:45;53.50;;;26.35;;
42260;SDS011;27926;48.062;7.474;2022-12-07T00:59:10;38.30;;;17.80;;
42260;SDS011;27926;48.062;7.474;2022-12-07T01:01:38;34.42;;;17.55;;
42260;SDS011;27926;48.062;7.474;2022-12-07T01:04:03;41.30;;;17.10;;
42260;SDS011;27926;48.062;7.474;2022-12-07T01:06:28;28.42;;;15.50;;
42260;SDS011;27926;48.062;7.474;2022-12-07T01:08:54;32.95;;;16.92;;
42260;SDS011;27926;48.062;7.474;2022-12-07T01:11:20;30.20;;;15.50;;
42260;SDS011;27926;48.062;7.474;2022-12-07T01:13:46;34.42;;;15.50;;
42260;SDS011;27926;48.062;7.474;2022-12-07T01:16:14;30.13;;;15.57;;
42260;SDS011;27926;48.062;7.474;2022-12-07T01:18:40;26.75;;;14.55;;
42260;SDS011;27926;48.062;7.474;2022-12-07T01:21:06;31.40;;;15.20;;
42260;SDS011;27926;48.062;7.474;2022-12-07T01:23:35;31.48;;;14.70;;
42260;SDS011;27926;48.062;7.474;2022-12-07T01:26:01;34.90;;;15.43;;
42260;SDS011;27926;48.062;7.474;2022-12-07T01:28:33;30.85;;;15.60;;
42260;SDS011;27926;48.062;7.474;2022-12-07T01:31:05;34.65;;;15.43;;
42260;SDS011;27926;48.062;7.474;2022-12-07T01:33:32;28.13;;;16.65;;
42260;SDS011;27926;48.062;7.474;2022-12-07T01:36:02;32.47;;;16.02;;
42260;SDS011;27926;48.062;7.474;2022-12-07T01:38:39;34.53;;;16.08;;
42260;SDS011;27926;48.062;7.474;2022-12-07T01:41:03;38.00;;;17.58;;
42260;SDS011;27926;48.062;7.474;2022-12-07T01:43:29;28.87;;;16.33;;
42260;SDS011;27926;48.062;7.474;2022-12-07T01:45:55;30.13;;;16.65;;
42260;SDS011;27926;48.062;7.474;2022-12-07T01:48:22;29.48;;;15.68;;
42260;SDS011;27926;48.062;7.474;2022-12-07T01:50:50;30.23;;;16.13;;
42260;SDS011;27926;48.062;7.474;2022-12-07T01:53:20;28.23;;;15.82;;
42260;SDS011;27926;48.062;7.474;2022-12-07T01:55:49;33.92;;;15.68;;
42260;SDS011;27926;48.062;7.474;2022-12-07T01:58:17;30.85;;;15.77;;
42260;SDS011;27926;48.062;7.474;2022-12-07T02:00:42;26.42;;;14.40;;
42260;SDS011;27926;48.062;7.474;2022-12-07T02:03:48;35.60;;;16.80;;
42260;SDS011;27926;48.062;7.474;2022-12-07T02:05:56;29.23;;;16.25;;
42260;SDS011;27926;48.062;7.474;2022-12-07T02:08:23;34.60;;;15.82;;
42260;SDS011;27926;48.062;7.474;2022-12-07T02:10:48;33.72;;;16.80;;
42260;SDS011;27926;48.062;7.474;2022-12-07T02:13:14;33.35;;;17.48;;
42260;SDS011;27926;48.062;7.474;2022-12-07T02:21:45;32.97;;;17.38;;
42260;SDS011;27926;48.062;7.474;2022-12-07T02:27:01;36.28;;;19.08;;
42260;SDS011;27926;48.062;7.474;2022-12-07T02:29:42;35.42;;;17.40;;
42260;SDS011;27926;48.062;7.474;2022-12-07T02:34:49;32.10;;;17.08;;
42260;SDS011;27926;48.062;7.474;2022-12-07T02:40:01;28.90;;;16.52;;
42260;SDS011;27926;48.062;7.474;2022-12-07T02:42:34;33.08;;;16.20;;
42260;SDS011;27926;48.062;7.474;2022-12-07T02:47:33;31.85;;;15.88;;
42260;SDS011;27926;48.062;7.474;2022-12-07T02:50:02;32.45;;;17.73;;
42260;SDS011;27926;48.062;7.474;2022-12-07T02:52:28;33.80;;;18.42;;
42260;SDS011;27926;48.062;7.474;2022-12-07T02:54:53;33.38;;;17.05;;
42260;SDS011;27926;48.062;7.474;2022-12-07T03:00:16;39.45;;;18.58;;
42260;SDS011;27926;48.062;7.474;2022-12-07T03:08:06;42.97;;;17.52;;
42260;SDS011;27926;48.062;7.474;2022-12-07T03:13:22;35.95;;;16.48;;
42260;SDS011;27926;48.062;7.474;2022-12-07T03:16:20;34.97;;;16.70;;
42260;SDS011;27926;48.062;7.474;2022-12-07T03:18:50;37.42;;;22.10;;
42260;SDS011;27926;48.062;7.474;2022-12-07T03:21:20;42.08;;;22.30;;
42260;SDS011;27926;48.062;7.474;2022-12-07T03:23:53;32.42;;;18.40;;
42260;SDS011;27926;48.062;7.474;2022-12-07T03:26:20;34.53;;;17.23;;
42260;SDS011;27926;48.062;7.474;2022-12-07T03:28:50;30.92;;;15.80;;
42260;SDS011;27926;48.062;7.474;2022-12-07T03:31:22;32.47;;;15.88;;
42260;SDS011;27926;48.062;7.474;2022-12-07T03:33:56;30.98;;;16.42;;
42260;SDS011;27926;48.062;7.474;2022-12-07T03:36:32;29.38;;;15.55;;
42260;SDS011;27926;48.062;7.474;2022-12-07T03:41:57;36.28;;;15.43;;
42260;SDS011;27926;48.062;7.474;2022-12-07T03:44:24;35.03;;;15.43;;
42260;SDS011;27926;48.062;7.474;2022-12-07T03:49:45;37.17;;;16.05;;
42260;SDS011;27926;48.062;7.474;2022-12-07T03:52:22;26.10;;;13.70;;
42260;SDS011;27926;48.062;7.474;2022-12-07T03:54:53;29.52;;;15.77;;
42260;SDS011;27926;48.062;7.474;2022-12-07T03:57:24;31.90;;;16.70;;
42260;SDS011;27926;48.062;7.474;2022-12-07T03:59:50;36.42;;;16.85;;
42260;SDS011;27926;48.062;7.474;2022-12-07T04:02:15;33.33;;;14.13;;
42260;SDS011;27926;48.062;7.474;2022-12-07T04:04:40;35.60;;;16.10;;
42260;SDS011;27926;48.062;7.474;2022-12-07T04:07:06;29.92;;;15.98;;
42260;SDS011;27926;48.062;7.474;2022-12-07T04:09:32;34.65;;;14.52;;
42260;SDS011;27926;48.062;7.474;2022-12-07T04:11:56;31.80;;;15.73;;
42260;SDS011;27926;48.062;7.474;2022-12-07T04:14:21;27.70;;;14.88;;
42260;SDS011;27926;48.062;7.474;2022-12-07T04:16:47;30.05;;;15.35;;
42260;SDS011;27926;48.062;7.474;2022-12-07T04:19:17;29.80;;;15.82;;
42260;SDS011;27926;48.062;7.474;2022-12-07T04:21:43;24.25;;;13.70;;
42260;SDS011;27926;48.062;7.474;2022-12-07T04:24:08;29.60;;;14.68;;
42260;SDS011;27926;48.062;7.474;2022-12-07T04:26:33;28.30;;;14.60;;
42260;SDS011;27926;48.062;7.474;2022-12-07T04:28:57;30.20;;;13.75;;
42260;SDS011;27926;48.062;7.474;2022-12-07T04:31:22;35.63;;;14.77;;
42260;SDS011;27926;48.062;7.474;2022-12-07T04:33:47;24.87;;;12.37;;
42260;SDS011;27926;48.062;7.474;2022-12-07T04:36:11;22.90;;;12.87;;
42260;SDS011;27926;48.062;7.474;2022-12-07T04:38:36;23.40;;;13.63;;
42260;SDS011;27926;48.062;7.474;2022-12-07T04:41:04;28.70;;;15.30;;
42260;SDS011;27926;48.062;7.474;2022-12-07T04:43:30;24.40;;;12.07;;
42260;SDS011;27926;48.062;7.474;2022-12-07T04:45:54;30.20;;;14.30;;
42260;SDS011;27926;48.062;7.474;2022-12-07T04:48:19;25.27;;;12.93;;
42260;SDS011;27926;48.062;7.474;2022-12-07T04:50:43;26.88;;;13.25;;
42260;SDS011;27926;48.062;7.474;2022-12-07T04:53:08;23.30;;;12.63;;
42260;SDS011;27926;48.062;7.474;2022-12-07T04:55:33;23.20;;;12.60;;
42260;SDS011;27926;48.062;7.474;2022-12-07T04:57:57;27.00;;;13.13;;
42260;SDS011;27926;48.062;7.474;2022-12-07T05:00:22;23.52;;;12.02;;
42260;SDS011;27926;48.062;7.474;2022-12-07T05:02:46;24.80;;;13.10;;
42260;SDS011;27926;48.062;7.474;2022-12-07T05:05:11;28.90;;;12.93;;
42260;SDS011;27926;48.062;7.474;2022-12-07T05:07:36;24.73;;;11.32;;
42260;SDS011;27926;48.062;7.474;2022-12-07T05:10:00;25.65;;;11.98;;
42260;SDS011;27926;48.062;7.474;2022-12-07T05:12:25;28.00;;;14.50;;
42260;SDS011;27926;48.062;7.474;2022-12-07T05:14:49;28.83;;;12.97;;
42260;SDS011;27926;48.062;7.474;2022-12-07T05:17:14;23.60;;;12.67;;
42260;SDS011;27926;48.062;7.474;2022-12-07T05:19:38;24.67;;;12.13;;
42260;SDS011;27926;48.062;7.474;2022-12-07T05:22:03;36.65;;;13.98;;
42260;SDS011;27926;48.062;7.474;2022-12-07T05:24:27;31.25;;;13.75;;
42260;SDS011;27926;48.062;7.474;2022-12-07T05:26:52;25.63;;;12.70;;
42260;SDS011;27926;48.062;7.474;2022-12-07T05:29:17;23.83;;;13.03;;
42260;SDS011;27926;48.062;7.474;2022-12-07T05:31:42;28.97;;;13.17;;
42260;SDS011;27926;48.062;7.474;2022-12-07T05:34:07;29.40;;;14.90;;
42260;SDS011;27926;48.062;7.474;2022-12-07T05:36:32;31.17;;;14.63;;
42260;SDS011;27926;48.062;7.474;2022-12-07T05:38:57;26.23;;;12.10;;
42260;SDS011;27926;48.062;7.474;2022-12-07T05:41:22;24.00;;;12.85;;
42260;SDS011;27926;48.062;7.474;2022-12-07T05:44:05;23.65;;;12.18;;
42260;SDS011;27926;48.062;7.474;2022-12-07T05:46:30;33.23;;;12.13;;
42260;SDS011;27926;48.062;7.474;2022-12-07T05:48:54;26.23;;;13.60;;
42260;SDS011;27926;48.062;7.474;2022-12-07T05:51:19;22.50;;;12.87;;
42260;SDS011;27926;48.062;7.474;2022-12-07T05:53:44;27.90;;;13.77;;
42260;SDS011;27926;48.062;7.474;2022-12-07T05:56:09;25.73;;;12.30;;
42260;SDS011;27926;48.062;7.474;2022-12-07T05:58:34;28.13;;;12.50;;
42260;SDS011;27926;48.062;7.474;2022-12-07T06:01:17;35.97;;;13.10;;
42260;SDS011;27926;48.062;7.474;2022-12-07T06:03:42;28.37;;;14.97;;
42260;SDS011;27926;48.062;7.474;2022-12-07T06:06:09;29.73;;;14.33;;
42260;SDS011;27926;48.062;7.474;2022-12-07T06:08:34;31.17;;;13.20;;
42260;SDS011;27926;48.062;7.474;2022-12-07T06:10:58;34.40;;;14.97;;
42260;SDS011;27926;48.062;7.474;2022-12-07T06:13:41;26.92;;;11.85;;
42260;SDS011;27926;48.062;7.474;2022-12-07T06:16:06;28.40;;;12.73;;
42260;SDS011;27926;48.062;7.474;2022-12-07T06:18:31;44.67;;;13.80;;
42260;SDS011;27926;48.062;7.474;2022-12-07T06:20:55;28.73;;;12.27;;
42260;SDS011;27926;48.062;7.474;2022-12-07T06:23:20;29.17;;;12.13;;
42260;SDS011;27926;48.062;7.474;2022-12-07T06:25:45;25.50;;;12.70;;
42260;SDS011;27926;48.062;7.474;2022-12-07T06:28:10;34.63;;;17.17;;
42260;SDS011;27926;48.062;7.474;2022-12-07T06:30:35;27.07;;;15.73;;
42260;SDS011;27926;48.062;7.474;2022-12-07T06:33:02;34.90;;;13.03;;
42260;SDS011;27926;48.062;7.474;2022-12-07T06:35:27;27.52;;;12.75;;
42260;SDS011;27926;48.062;7.474;2022-12-07T06:37:51;24.70;;;12.20;;
42260;SDS011;27926;48.062;7.474;2022-12-07T06:40:16;22.03;;;11.67;;
42260;SDS011;27926;48.062;7.474;2022-12-07T06:42:40;27.80;;;13.63;;
42260;SDS011;27926;48.062;7.474;2022-12-07T06:45:05;25.80;;;12.50;;
42260;SDS011;27926;48.062;7.474;2022-12-07T06:47:30;27.80;;;13.70;;
42260;SDS011;27926;48.062;7.474;2022-12-07T06:49:55;25.20;;;13.43;;
42260;SDS011;27926;48.062;7.474;2022-12-07T06:52:20;36.40;;;14.47;;
42260;SDS011;27926;48.062;7.474;2022-12-07T06:54:44;33.80;;;15.83;;
42260;SDS011;27926;48.062;7.474;2022-12-07T06:57:09;29.00;;;14.30;;
42260;SDS011;27926;48.062;7.474;2022-12-07T06:59:34;38.93;;;15.80;;
42260;SDS011;27926;48.062;7.474;2022-12-07T07:01:58;34.33;;;15.93;;
42260;SDS011;27926;48.062;7.474;2022-12-07T07:04:23;40.53;;;17.43;;
42260;SDS011;27926;48.062;7.474;2022-12-07T07:06:48;41.17;;;16.85;;
42260;SDS011;27926;48.062;7.474;2022-12-07T07:09:13;42.03;;;19.97;;
42260;SDS011;27926;48.062;7.474;2022-12-07T07:11:37;43.43;;;20.40;;
42260;SDS011;27926;48.062;7.474;2022-12-07T07:14:02;48.50;;;20.10;;
42260;SDS011;27926;48.062;7.474;2022-12-07T07:16:27;41.50;;;20.17;;
42260;SDS011;27926;48.062;7.474;2022-12-07T07:18:53;50.72;;;21.30;;
42260;SDS011;27926;48.062;7.474;2022-12-07T07:21:18;46.40;;;21.00;;
42260;SDS011;27926;48.062;7.474;2022-12-07T07:23:42;49.40;;;21.47;;
42260;SDS011;27926;48.062;7.474;2022-12-07T07:26:07;45.47;;;21.37;;
42260;SDS011;27926;48.062;7.474;2022-12-07T07:28:31;52.03;;;21.63;;
42260;SDS011;27926;48.062;7.474;2022-12-07T07:30:56;45.67;;;20.60;;
42260;SDS011;27926;48.062;7.474;2022-12-07T07:33:20;43.57;;;19.00;;
42260;SDS011;27926;48.062;7.474;2022-12-07T07:35:45;60.87;;;25.73;;
42260;SDS011;27926;48.062;7.474;2022-12-07T07:38:10;49.37;;;22.43;;
42260;SDS011;27926;48.062;7.474;2022-12-07T07:40:34;41.77;;;19.83;;
42260;SDS011;27926;48.062;7.474;2022-12-07T07:43:00;39.30;;;19.95;;
42260;SDS011;27926;48.062;7.474;2022-12-07T07:45:26;55.33;;;24.80;;
42260;SDS011;27926;48.062;7.474;2022-12-07T07:47:51;43.83;;;20.50;;
42260;SDS011;27926;48.062;7.474;2022-12-07T07:50:15;34.13;;;17.85;;
42260;SDS011;27926;48.062;7.474;2022-12-07T07:52:41;43.78;;;19.55;;
42260;SDS011;27926;48.062;7.474;2022-12-07T07:55:06;51.15;;;18.23;;
42260;SDS011;27926;48.062;7.474;2022-12-07T07:57:32;42.35;;;18.33;;
42260;SDS011;27926;48.062;7.474;2022-12-07T07:59:57;36.83;;;17.87;;
42260;SDS011;27926;48.062;7.474;2022-12-07T08:02:22;36.43;;;16.30;;
42260;SDS011;27926;48.062;7.474;2022-12-07T08:04:47;34.88;;;16.35;;
42260;SDS011;27926;48.062;7.474;2022-12-07T08:07:12;39.20;;;16.45;;
42260;SDS011;27926;48.062;7.474;2022-12-07T08:09:37;31.77;;;15.13;;
42260;SDS011;27926;48.062;7.474;2022-12-07T08:12:02;29.60;;;14.67;;
42260;SDS011;27926;48.062;7.474;2022-12-07T08:14:27;34.10;;;15.15;;
42260;SDS011;27926;48.062;7.474;2022-12-07T08:16:52;34.75;;;15.55;;
42260;SDS011;27926;48.062;7.474;2022-12-07T08:19:17;31.40;;;15.80;;
42260;SDS011;27926;48.062;7.474;2022-12-07T08:21:42;33.07;;;16.20;;
42260;SDS011;27926;48.062;7.474;2022-12-07T08:24:06;38.93;;;16.23;;
42260;SDS011;27926;48.062;7.474;2022-12-07T08:26:31;48.47;;;17.17;;
42260;SDS011;27926;48.062;7.474;2022-12-07T08:28:56;45.17;;;18.13;;
42260;SDS011;27926;48.062;7.474;2022-12-07T08:31:20;39.67;;;18.77;;
42260;SDS011;27926;48.062;7.474;2022-12-07T08:33:46;39.67;;;17.60;;
42260;SDS011;27926;48.062;7.474;2022-12-07T08:36:12;35.65;;;17.35;;
42260;SDS011;27926;48.062;7.474;2022-12-07T08:38:38;30.75;;;16.52;;
42260;SDS011;27926;48.062;7.474;2022-12-07T08:43:31;30.15;;;15.27;;
42260;SDS011;27926;48.062;7.474;2022-12-07T08:46:06;51.03;;;18.27;;
42260;SDS011;27926;48.062;7.474;2022-12-07T08:48:48;30.95;;;15.13;;
42260;SDS011;27926;48.062;7.474;2022-12-07T08:51:17;28.95;;;14.98;;
42260;SDS011;27926;48.062;7.474;2022-12-07T08:53:41;23.92;;;13.02;;
42260;SDS011;27926;48.062;7.474;2022-12-07T08:56:07;30.63;;;13.82;;
42260;SDS011;27926;48.062;7.474;2022-12-07T08:58:33;42.23;;;18.23;;
42260;SDS011;27926;48.062;7.474;2022-12-07T09:00:59;30.85;;;16.38;;
42260;SDS011;27926;48.062;7.474;2022-12-07T09:03:24;35.42;;;16.33;;
42260;SDS011;27926;48.062;7.474;2022-12-07T09:05:48;36.78;;;14.88;;
42260;SDS011;27926;48.062;7.474;2022-12-07T09:08:13;37.22;;;14.95;;
42260;SDS011;27926;48.062;7.474;2022-12-07T09:10:38;41.22;;;17.55;;
42260;SDS011;27926;48.062;7.474;2022-12-07T09:13:02;32.13;;;15.27;;
42260;SDS011;27926;48.062;7.474;2022-12-07T09:15:28;29.48;;;14.13;;
42260;SDS011;27926;48.062;7.474;2022-12-07T09:17:53;26.23;;;11.98;;
42260;SDS011;27926;48.062;7.474;2022-12-07T09:20:17;22.45;;;11.93;;
42260;SDS011;27926;48.062;7.474;2022-12-07T09:22:42;22.50;;;11.98;;
42260;SDS011;27926;48.062;7.474;2022-12-07T09:25:07;28.58;;;13.27;;
42260;SDS011;27926;48.062;7.474;2022-12-07T09:27:31;23.10;;;13.10;;
42260;SDS011;27926;48.062;7.474;2022-12-07T09:29:56;26.63;;;13.03;;
42260;SDS011;27926;48.062;7.474;2022-12-07T09:32:21;30.90;;;14.27;;
42260;SDS011;27926;48.062;7.474;2022-12-07T09:34:46;23.60;;;12.18;;
42260;SDS011;27926;48.062;7.474;2022-12-07T09:37:10;25.90;;;10.77;;
42260;SDS011;27926;48.062;7.474;2022-12-07T09:39:39;29.05;;;13.68;;
42260;SDS011;27926;48.062;7.474;2022-12-07T09:42:04;25.23;;;12.90;;
42260;SDS011;27926;48.062;7.474;2022-12-07T09:44:30;25.05;;;11.82;;
42260;SDS011;27926;48.062;7.474;2022-12-07T09:46:55;22.40;;;12.13;;
42260;SDS011;27926;48.062;7.474;2022-12-07T09:49:22;27.20;;;12.50;;
42260;SDS011;27926;48.062;7.474;2022-12-07T09:52:03;27.58;;;13.10;;
42260;SDS011;27926;48.062;7.474;2022-12-07T09:54:49;22.70;;;11.93;;
42260;SDS011;27926;48.062;7.474;2022-12-07T09:57:14;19.80;;;11.52;;
42260;SDS011;27926;48.062;7.474;2022-12-07T09:59:41;27.77;;;13.70;;
42260;SDS011;27926;48.062;7.474;2022-12-07T10:05:04;24.05;;;13.77;;
42260;SDS011;27926;48.062;7.474;2022-12-07T10:07:30;30.02;;;13.77;;
42260;SDS011;27926;48.062;7.474;2022-12-07T10:09:55;23.02;;;13.43;;
42260;SDS011;27926;48.062;7.474;2022-12-07T10:12:20;23.17;;;13.45;;
42260;SDS011;27926;48.062;7.474;2022-12-07T10:17:39;25.35;;;12.65;;
42260;SDS011;27926;48.062;7.474;2022-12-07T10:20:26;33.20;;;14.48;;
42260;SDS011;27926;48.062;7.474;2022-12-07T10:23:04;23.00;;;12.68;;
42260;SDS011;27926;48.062;7.474;2022-12-07T10:25:37;24.58;;;13.07;;
42260;SDS011;27926;48.062;7.474;2022-12-07T10:30:31;20.23;;;10.23;;
42260;SDS011;27926;48.062;7.474;2022-12-07T10:32:57;18.67;;;9.98;;
42260;SDS011;27926;48.062;7.474;2022-12-07T10:37:53;18.42;;;10.23;;
42260;SDS011;27926;48.062;7.474;2022-12-07T10:40:35;18.33;;;11.40;;
42260;SDS011;27926;48.062;7.474;2022-12-07T10:43:02;19.60;;;10.15;;
42260;SDS011;27926;48.062;7.474;2022-12-07T10:45:27;20.25;;;10.25;;
42260;SDS011;27926;48.062;7.474;2022-12-07T10:53:46;26.55;;;10.63;;
42260;SDS011;27926;48.062;7.474;2022-12-07T10:56:11;20.27;;;9.93;;
42260;SDS011;27926;48.062;7.474;2022-12-07T11:01:44;20.50;;;10.27;;
42260;SDS011;27926;48.062;7.474;2022-12-07T11:06:39;23.75;;;11.07;;
42260;SDS011;27926;48.062;7.474;2022-12-07T11:11:45;38.08;;;18.95;;
42260;SDS011;27926;48.062;7.474;2022-12-07T11:14:21;35.58;;;13.60;;
42260;SDS011;27926;48.062;7.474;2022-12-07T11:22:16;21.00;;;10.50;;
42260;SDS011;27926;48.062;7.474;2022-12-07T11:27:50;24.45;;;9.13;;
42260;SDS011;27926;48.062;7.474;2022-12-07T11:30:28;18.55;;;9.65;;
42260;SDS011;27926;48.062;7.474;2022-12-07T11:33:12;15.70;;;8.43;;
42260;SDS011;27926;48.062;7.474;2022-12-07T11:38:55;14.20;;;6.13;;
42260;SDS011;27926;48.062;7.474;2022-12-07T11:41:26;11.43;;;5.18;;
42260;SDS011;27926;48.062;7.474;2022-12-07T11:44:06;13.95;;;6.38;;
42260;SDS011;27926;48.062;7.474;2022-12-07T11:49:58;13.20;;;6.05;;
42260;SDS011;27926;48.062;7.474;2022-12-07T11:55:14;10.20;;;5.55;;
42260;SDS011;27926;48.062;7.474;2022-12-07T11:57:44;11.07;;;6.00;;
42260;SDS011;27926;48.062;7.474;2022-12-07T12:00:14;9.07;;;5.10;;
42260;SDS011;27926;48.062;7.474;2022-12-07T12:03:02;11.13;;;5.90;;
42260;SDS011;27926;48.062;7.474;2022-12-07T12:05:45;10.65;;;5.50;;
42260;SDS011;27926;48.062;7.474;2022-12-07T12:10:37;10.13;;;5.30;;
42260;SDS011;27926;48.062;7.474;2022-12-07T12:13:38;11.40;;;6.25;;
42260;SDS011;27926;48.062;7.474;2022-12-07T12:16:47;13.10;;;7.17;;
42260;SDS011;27926;48.062;7.474;2022-12-07T12:21:49;12.23;;;7.07;;
42260;SDS011;27926;48.062;7.474;2022-12-07T12:24:25;17.15;;;7.03;;
42260;SDS011;27926;48.062;7.474;2022-12-07T12:26:55;11.75;;;5.80;;
42260;SDS011;27926;48.062;7.474;2022-12-07T12:29:30;8.48;;;4.68;;
42260;SDS011;27926;48.062;7.474;2022-12-07T12:34:41;9.65;;;5.15;;
42260;SDS011;27926;48.062;7.474;2022-12-07T12:42:46;7.18;;;3.72;;
42260;SDS011;27926;48.062;7.474;2022-12-07T12:47:55;9.77;;;4.18;;
42260;SDS011;27926;48.062;7.474;2022-12-07T12:50:27;8.35;;;4.32;;
42260;SDS011;27926;48.062;7.474;2022-12-07T12:52:58;9.35;;;5.00;;
42260;SDS011;27926;48.062;7.474;2022-12-07T12:58:28;10.18;;;5.43;;
42260;SDS011;27926;48.062;7.474;2022-12-07T13:01:39;10.13;;;5.13;;
42260;SDS011;27926;48.062;7.474;2022-12-07T13:04:00;8.65;;;4.63;;
42260;SDS011;27926;48.062;7.474;2022-12-07T13:08:52;10.55;;;6.00;;
42260;SDS011;27926;48.062;7.474;2022-12-07T13:11:34;9.18;;;5.32;;
42260;SDS011;27926;48.062;7.474;2022-12-07T13:17:57;12.10;;;6.30;;
42260;SDS011;27926;48.062;7.474;2022-12-07T13:19:55;7.90;;;4.85;;
42260;SDS011;27926;48.062;7.474;2022-12-07T13:22:40;10.30;;;5.43;;
42260;SDS011;27926;48.062;7.474;2022-12-07T13:25:12;13.52;;;5.75;;
42260;SDS011;27926;48.062;7.474;2022-12-07T13:27:43;12.52;;;6.50;;
42260;SDS011;27926;48.062;7.474;2022-12-07T13:30:31;12.05;;;5.18;;
42260;SDS011;27926;48.062;7.474;2022-12-07T13:33:03;11.40;;;4.80;;
42260;SDS011;27926;48.062;7.474;2022-12-07T13:35:28;11.38;;;5.10;;
42260;SDS011;27926;48.062;7.474;2022-12-07T13:37:53;8.38;;;5.55;;
42260;SDS011;27926;48.062;7.474;2022-12-07T13:40:18;10.32;;;5.68;;
42260;SDS011;27926;48.062;7.474;2022-12-07T13:42:45;10.63;;;5.68;;
42260;SDS011;27926;48.062;7.474;2022-12-07T13:45:43;8.48;;;5.07;;
42260;SDS011;27926;48.062;7.474;2022-12-07T13:48:32;16.10;;;7.38;;
42260;SDS011;27926;48.062;7.474;2022-12-07T13:51:00;14.00;;;7.03;;
42260;SDS011;27926;48.062;7.474;2022-12-07T13:53:26;13.88;;;6.43;;
42260;SDS011;27926;48.062;7.474;2022-12-07T13:55:54;12.05;;;6.75;;
42260;SDS011;27926;48.062;7.474;2022-12-07T13:58:19;9.77;;;5.97;;
42260;SDS011;27926;48.062;7.474;2022-12-07T14:00:44;13.77;;;6.80;;
42260;SDS011;27926;48.062;7.474;2022-12-07T14:05:36;13.88;;;7.60;;
42260;SDS011;27926;48.062;7.474;2022-12-07T14:08:03;15.25;;;7.20;;
42260;SDS011;27926;48.062;7.474;2022-12-07T14:10:36;13.00;;;6.03;;
42260;SDS011;27926;48.062;7.474;2022-12-07T14:15:51;14.30;;;7.45;;
42260;SDS011;27926;48.062;7.474;2022-12-07T14:21:03;13.32;;;7.60;;
42260;SDS011;27926;48.062;7.474;2022-12-07T14:23:34;15.88;;;8.02;;
42260;SDS011;27926;48.062;7.474;2022-12-07T14:28:37;20.42;;;8.93;;
42260;SDS011;27926;48.062;7.474;2022-12-07T14:31:02;22.83;;;11.05;;
42260;SDS011;27926;48.062;7.474;2022-12-07T14:33:32;19.77;;;9.88;;
42260;SDS011;27926;48.062;7.474;2022-12-07T14:35:56;16.77;;;9.07;;
42260;SDS011;27926;48.062;7.474;2022-12-07T14:38:22;17.77;;;8.37;;
42260;SDS011;27926;48.062;7.474;2022-12-07T14:40:46;18.15;;;8.25;;
42260;SDS011;27926;48.062;7.474;2022-12-07T14:43:12;19.50;;;8.87;;
42260;SDS011;27926;48.062;7.474;2022-12-07T14:45:39;30.02;;;11.80;;
42260;SDS011;27926;48.062;7.474;2022-12-07T14:48:04;129.52;;;30.70;;
42260;SDS011;27926;48.062;7.474;2022-12-07T14:50:29;60.90;;;17.52;;
42260;SDS011;27926;48.062;7.474;2022-12-07T14:52:58;164.30;;;35.17;;
42260;SDS011;27926;48.062;7.474;2022-12-07T14:55:26;118.70;;;30.23;;
42260;SDS011;27926;48.062;7.474;2022-12-07T14:57:53;97.70;;;31.15;;
42260;SDS011;27926;48.062;7.474;2022-12-07T15:00:19;82.50;;;24.20;;
42260;SDS011;27926;48.062;7.474;2022-12-07T15:02:45;78.65;;;23.20;;
42260;SDS011;27926;48.062;7.474;2022-12-07T15:05:11;48.72;;;17.02;;
42260;SDS011;27926;48.062;7.474;2022-12-07T15:07:36;51.15;;;18.30;;
42260;SDS011;27926;48.062;7.474;2022-12-07T15:10:01;56.15;;;16.67;;
42260;SDS011;27926;48.062;7.474;2022-12-07T15:12:27;38.90;;;12.68;;
42260;SDS011;27926;48.062;7.474;2022-12-07T15:14:51;39.47;;;13.15;;
42260;SDS011;27926;48.062;7.474;2022-12-07T15:17:16;31.70;;;10.70;;
42260;SDS011;27926;48.062;7.474;2022-12-07T15:19:41;27.85;;;10.57;;
42260;SDS011;27926;48.062;7.474;2022-12-07T15:22:05;25.83;;;9.32;;
42260;SDS011;27926;48.062;7.474;2022-12-07T15:24:30;17.07;;;7.17;;
42260;SDS011;27926;48.062;7.474;2022-12-07T15:26:54;16.63;;;6.75;;
42260;SDS011;27926;48.062;7.474;2022-12-07T15:29:19;13.77;;;6.80;;
42260;SDS011;27926;48.062;7.474;2022-12-07T15:31:44;14.63;;;6.72;;
42260;SDS011;27926;48.062;7.474;2022-12-07T15:34:09;16.63;;;6.90;;
42260;SDS011;27926;48.062;7.474;2022-12-07T15:36:34;16.83;;;7.15;;
42260;SDS011;27926;48.062;7.474;2022-12-07T15:38:59;18.57;;;6.83;;
42260;SDS011;27926;48.062;7.474;2022-12-07T15:41:24;15.70;;;7.22;;
42260;SDS011;27926;48.062;7.474;2022-12-07T15:43:50;14.30;;;6.88;;
42260;SDS011;27926;48.062;7.474;2022-12-07T15:46:38;16.98;;;7.63;;
42260;SDS011;27926;48.062;7.474;2022-12-07T15:49:06;17.13;;;7.22;;
42260;SDS011;27926;48.062;7.474;2022-12-07T15:51:37;13.77;;;7.05;;
42260;SDS011;27926;48.062;7.474;2022-12-07T15:54:01;18.30;;;7.20;;
42260;SDS011;27926;48.062;7.474;2022-12-07T15:56:26;20.17;;;7.67;;
42260;SDS011;27926;48.062;7.474;2022-12-07T15:58:50;19.97;;;8.47;;
42260;SDS011;27926;48.062;7.474;2022-12-07T16:01:16;20.08;;;8.27;;
42260;SDS011;27926;48.062;7.474;2022-12-07T16:03:43;16.23;;;7.82;;
42260;SDS011;27926;48.062;7.474;2022-12-07T16:06:09;17.00;;;7.90;;
42260;SDS011;27926;48.062;7.474;2022-12-07T16:08:34;22.73;;;10.30;;
42260;SDS011;27926;48.062;7.474;2022-12-07T16:10:58;33.73;;;10.33;;
42260;SDS011;27926;48.062;7.474;2022-12-07T16:13:23;22.42;;;10.38;;
42260;SDS011;27926;48.062;7.474;2022-12-07T16:15:48;19.83;;;8.63;;
42260;SDS011;27926;48.062;7.474;2022-12-07T16:18:12;21.55;;;8.30;;
42260;SDS011;27926;48.062;7.474;2022-12-07T16:20:37;19.73;;;8.73;;
42260;SDS011;27926;48.062;7.474;2022-12-07T16:23:02;19.63;;;9.00;;
42260;SDS011;27926;48.062;7.474;2022-12-07T16:25:27;20.97;;;10.53;;